sensor_id;sensor_type;location;lat;lon;timestamp;P1;durP1;ratioP1;P2;durP2;ratioP2
53694;SDS011;39588;51.124;7.190;2023-06-14T00:01:46;3.53;;;2.90;;
53694;SDS011;39588;51.124;7.190;2023-06-14T00:04:13;3.37;;;2.67;;
53694;SDS011;39588;51.124;7.190;2023-06-14T00:06:42;8.00;;;2.33;;
53694;SDS011;39588;51.124;7.190;2023-06-14T00:09:10;4.97;;;2.70;;
53694;SDS011;39588;51.124;7.190;2023-06-14T00:11:37;8.87;;;3.20;;
53694;SDS011;39588;51.124;7.190;2023-06-14T00:14:03;2.47;;;2.20;;
53694;SDS011;39588;51.124;7.190;2023-06-14T00:16:29;3.17;;;2.63;;
53694;SDS011;39588;51.124;7.190;2023-06-14T00:18:55;3.13;;;2.30;;
53694;SDS011;39588;51.124;7.190;2023-06-14T00:21:21;2.87;;;2.43;;
53694;SDS011;39588;51.124;7.190;2023-06-14T00:23:46;3.57;;;3.10;;
53694;SDS011;39588;51.124;7.190;2023-06-14T00:26:12;3.23;;;2.80;;
53694;SDS011;39588;51.124;7.190;2023-06-14T00:28:38;3.63;;;2.83;;
53694;SDS011;39588;51.124;7.190;2023-06-14T00:31:04;5.20;;;2.93;;
53694;SDS011;39588;51.124;7.190;2023-06-14T00:33:29;2.30;;;2.10;;
53694;SDS011;39588;51.124;7.190;2023-06-14T00:35:55;8.87;;;3.10;;
53694;SDS011;39588;51.124;7.190;2023-06-14T00:38:21;3.63;;;2.23;;
53694;SDS011;39588;51.124;7.190;2023-06-14T00:40:47;6.67;;;3.03;;
53694;SDS011;39588;51.124;7.190;2023-06-14T00:43:13;4.07;;;2.60;;
53694;SDS011;39588;51.124;7.190;2023-06-14T00:45:39;5.60;;;2.90;;
53694;SDS011;39588;51.124;7.190;2023-06-14T00:48:05;3.50;;;2.40;;
53694;SDS011;39588;51.124;7.190;2023-06-14T00:50:32;3.07;;;2.77;;
53694;SDS011;39588;51.124;7.190;2023-06-14T00:52:59;3.80;;;2.90;;
53694;SDS011;39588;51.124;7.190;2023-06-14T00:55:26;3.80;;;2.40;;
53694;SDS011;39588;51.124;7.190;2023-06-14T00:57:53;3.10;;;2.47;;
53694;SDS011;39588;51.124;7.190;2023-06-14T01:00:22;2.60;;;2.40;;
53694;SDS011;39588;51.124;7.190;2023-06-14T01:02:48;3.03;;;2.60;;
53694;SDS011;39588;51.124;7.190;2023-06-14T01:05:18;3.80;;;2.40;;
53694;SDS011;39588;51.124;7.190;2023-06-14T01:13:21;3.53;;;2.47;;
53694;SDS011;39588;51.124;7.190;2023-06-14T01:15:54;2.30;;;2.10;;
53694;SDS011;39588;51.124;7.190;2023-06-14T01:18:22;2.37;;;2.17;;
53694;SDS011;39588;51.124;7.190;2023-06-14T01:20:49;2.40;;;2.20;;
53694;SDS011;39588;51.124;7.190;2023-06-14T01:23:18;3.03;;;2.30;;
53694;SDS011;39588;51.124;7.190;2023-06-14T01:25:45;3.13;;;2.10;;
53694;SDS011;39588;51.124;7.190;2023-06-14T01:28:12;3.90;;;2.83;;
53694;SDS011;39588;51.124;7.190;2023-06-14T01:30:40;2.53;;;2.33;;
53694;SDS011;39588;51.124;7.190;2023-06-14T01:33:09;2.33;;;2.13;;
53694;SDS011;39588;51.124;7.190;2023-06-14T01:35:36;2.60;;;2.40;;
53694;SDS011;39588;51.124;7.190;2023-06-14T01:38:02;8.23;;;2.50;;
53694;SDS011;39588;51.124;7.190;2023-06-14T01:40:28;2.43;;;2.23;;
53694;SDS011;39588;51.124;7.190;2023-06-14T01:42:56;13.73;;;2.43;;
53694;SDS011;39588;51.124;7.190;2023-06-14T01:45:22;1.80;;;1.70;;
53694;SDS011;39588;51.124;7.190;2023-06-14T01:47:48;4.13;;;2.40;;
53694;SDS011;39588;51.124;7.190;2023-06-14T01:50:14;2.03;;;1.93;;
53694;SDS011;39588;51.124;7.190;2023-06-14T01:52:39;2.97;;;1.90;;
53694;SDS011;39588;51.124;7.190;2023-06-14T01:55:05;3.20;;;1.77;;
53694;SDS011;39588;51.124;7.190;2023-06-14T01:57:33;7.07;;;1.87;;
53694;SDS011;39588;51.124;7.190;2023-06-14T01:59:58;2.37;;;2.17;;
53694;SDS011;39588;51.124;7.190;2023-06-14T02:02:24;24.60;;;2.87;;
53694;SDS011;39588;51.124;7.190;2023-06-14T02:04:50;3.07;;;2.13;;
53694;SDS011;39588;51.124;7.190;2023-06-14T02:07:17;2.30;;;2.07;;
53694;SDS011;39588;51.124;7.190;2023-06-14T02:09:43;2.00;;;1.80;;
53694;SDS011;39588;51.124;7.190;2023-06-14T02:12:08;3.47;;;2.30;;
53694;SDS011;39588;51.124;7.190;2023-06-14T02:14:35;4.50;;;2.50;;
53694;SDS011;39588;51.124;7.190;2023-06-14T02:17:01;1.87;;;1.77;;
53694;SDS011;39588;51.124;7.190;2023-06-14T02:19:27;4.40;;;2.50;;
53694;SDS011;39588;51.124;7.190;2023-06-14T02:21:52;2.87;;;2.10;;
53694;SDS011;39588;51.124;7.190;2023-06-14T02:24:18;2.60;;;2.27;;
53694;SDS011;39588;51.124;7.190;2023-06-14T02:26:45;1.97;;;1.77;;
53694;SDS011;39588;51.124;7.190;2023-06-14T02:29:11;3.00;;;2.07;;
53694;SDS011;39588;51.124;7.190;2023-06-14T02:31:39;3.47;;;2.30;;
53694;SDS011;39588;51.124;7.190;2023-06-14T02:34:06;2.63;;;2.30;;
53694;SDS011;39588;51.124;7.190;2023-06-14T02:36:35;2.67;;;2.00;;
53694;SDS011;39588;51.124;7.190;2023-06-14T02:39:07;2.60;;;1.90;;
53694;SDS011;39588;51.124;7.190;2023-06-14T02:41:34;1.93;;;1.80;;
53694;SDS011;39588;51.124;7.190;2023-06-14T02:44:00;2.97;;;1.80;;
53694;SDS011;39588;51.124;7.190;2023-06-14T02:46:25;7.60;;;2.07;;
53694;SDS011;39588;51.124;7.190;2023-06-14T02:48:52;2.27;;;2.03;;
53694;SDS011;39588;51.124;7.190;2023-06-14T02:51:18;3.37;;;2.60;;
53694;SDS011;39588;51.124;7.190;2023-06-14T02:53:43;2.83;;;2.47;;
53694;SDS011;39588;51.124;7.190;2023-06-14T02:56:10;2.40;;;1.93;;
53694;SDS011;39588;51.124;7.190;2023-06-14T02:58:36;1.87;;;1.63;;
53694;SDS011;39588;51.124;7.190;2023-06-14T03:01:02;2.40;;;2.17;;
53694;SDS011;39588;51.124;7.190;2023-06-14T03:03:32;3.17;;;2.00;;
53694;SDS011;39588;51.124;7.190;2023-06-14T03:05:58;4.43;;;2.13;;
53694;SDS011;39588;51.124;7.190;2023-06-14T03:08:29;2.33;;;2.10;;
53694;SDS011;39588;51.124;7.190;2023-06-14T03:10:54;2.23;;;2.03;;
53694;SDS011;39588;51.124;7.190;2023-06-14T03:13:21;2.30;;;2.10;;
53694;SDS011;39588;51.124;7.190;2023-06-14T03:15:47;3.33;;;2.20;;
53694;SDS011;39588;51.124;7.190;2023-06-14T03:18:15;1.83;;;1.73;;
53694;SDS011;39588;51.124;7.190;2023-06-14T03:20:41;2.37;;;2.17;;
53694;SDS011;39588;51.124;7.190;2023-06-14T03:23:08;1.93;;;1.70;;
53694;SDS011;39588;51.124;7.190;2023-06-14T03:25:34;1.73;;;1.63;;
53694;SDS011;39588;51.124;7.190;2023-06-14T03:28:03;2.60;;;2.40;;
53694;SDS011;39588;51.124;7.190;2023-06-14T03:30:30;3.93;;;2.37;;
53694;SDS011;39588;51.124;7.190;2023-06-14T03:32:56;2.07;;;1.93;;
53694;SDS011;39588;51.124;7.190;2023-06-14T03:35:22;7.47;;;2.53;;
53694;SDS011;39588;51.124;7.190;2023-06-14T03:37:48;8.87;;;1.90;;
53694;SDS011;39588;51.124;7.190;2023-06-14T03:40:15;1.97;;;1.50;;
53694;SDS011;39588;51.124;7.190;2023-06-14T03:42:42;3.03;;;2.00;;
53694;SDS011;39588;51.124;7.190;2023-06-14T03:45:08;2.67;;;2.30;;
53694;SDS011;39588;51.124;7.190;2023-06-14T03:47:34;1.90;;;1.70;;
53694;SDS011;39588;51.124;7.190;2023-06-14T03:50:03;14.07;;;1.80;;
53694;SDS011;39588;51.124;7.190;2023-06-14T03:52:29;8.77;;;2.80;;
53694;SDS011;39588;51.124;7.190;2023-06-14T03:54:56;2.50;;;2.13;;
53694;SDS011;39588;51.124;7.190;2023-06-14T03:57:22;4.37;;;2.07;;
53694;SDS011;39588;51.124;7.190;2023-06-14T03:59:48;5.73;;;2.10;;
53694;SDS011;39588;51.124;7.190;2023-06-14T04:02:14;3.43;;;2.13;;
53694;SDS011;39588;51.124;7.190;2023-06-14T04:04:44;2.20;;;2.00;;
53694;SDS011;39588;51.124;7.190;2023-06-14T04:07:13;7.90;;;1.87;;
53694;SDS011;39588;51.124;7.190;2023-06-14T04:09:40;2.63;;;1.70;;
53694;SDS011;39588;51.124;7.190;2023-06-14T04:12:06;2.20;;;2.00;;
53694;SDS011;39588;51.124;7.190;2023-06-14T04:14:34;2.67;;;2.47;;
53694;SDS011;39588;51.124;7.190;2023-06-14T04:16:59;10.67;;;2.20;;
53694;SDS011;39588;51.124;7.190;2023-06-14T04:19:25;2.17;;;1.97;;
53694;SDS011;39588;51.124;7.190;2023-06-14T04:21:51;6.10;;;2.30;;
53694;SDS011;39588;51.124;7.190;2023-06-14T04:24:17;3.30;;;2.17;;
53694;SDS011;39588;51.124;7.190;2023-06-14T04:26:43;2.83;;;2.00;;
53694;SDS011;39588;51.124;7.190;2023-06-14T04:29:10;2.57;;;1.87;;
53694;SDS011;39588;51.124;7.190;2023-06-14T04:31:39;1.73;;;1.63;;
53694;SDS011;39588;51.124;7.190;2023-06-14T04:34:05;2.13;;;1.93;;
53694;SDS011;39588;51.124;7.190;2023-06-14T04:36:34;3.03;;;1.93;;
53694;SDS011;39588;51.124;7.190;2023-06-14T04:39:05;2.17;;;1.97;;
53694;SDS011;39588;51.124;7.190;2023-06-14T04:41:31;2.17;;;1.67;;
53694;SDS011;39588;51.124;7.190;2023-06-14T04:43:57;1.77;;;1.67;;
53694;SDS011;39588;51.124;7.190;2023-06-14T04:46:26;2.37;;;2.17;;
53694;SDS011;39588;51.124;7.190;2023-06-14T04:48:53;2.67;;;2.07;;
53694;SDS011;39588;51.124;7.190;2023-06-14T04:51:19;3.80;;;2.33;;
53694;SDS011;39588;51.124;7.190;2023-06-14T04:53:47;2.43;;;1.90;;
53694;SDS011;39588;51.124;7.190;2023-06-14T04:56:14;3.70;;;2.53;;
53694;SDS011;39588;51.124;7.190;2023-06-14T04:58:41;1.93;;;1.83;;
53694;SDS011;39588;51.124;7.190;2023-06-14T05:01:08;3.90;;;2.20;;
53694;SDS011;39588;51.124;7.190;2023-06-14T05:03:34;3.43;;;1.73;;
53694;SDS011;39588;51.124;7.190;2023-06-14T05:06:00;3.40;;;1.87;;
53694;SDS011;39588;51.124;7.190;2023-06-14T05:08:25;3.70;;;2.20;;
53694;SDS011;39588;51.124;7.190;2023-06-14T05:10:51;2.23;;;2.03;;
53694;SDS011;39588;51.124;7.190;2023-06-14T05:13:18;1.90;;;1.80;;
53694;SDS011;39588;51.124;7.190;2023-06-14T05:15:44;3.77;;;2.57;;
53694;SDS011;39588;51.124;7.190;2023-06-14T05:18:10;6.30;;;1.90;;
53694;SDS011;39588;51.124;7.190;2023-06-14T05:20:36;2.63;;;2.00;;
53694;SDS011;39588;51.124;7.190;2023-06-14T05:23:02;2.73;;;2.00;;
53694;SDS011;39588;51.124;7.190;2023-06-14T05:25:28;2.10;;;1.90;;
53694;SDS011;39588;51.124;7.190;2023-06-14T05:27:54;2.27;;;2.00;;
53694;SDS011;39588;51.124;7.190;2023-06-14T05:30:20;2.37;;;2.17;;
53694;SDS011;39588;51.124;7.190;2023-06-14T05:32:45;5.07;;;2.20;;
53694;SDS011;39588;51.124;7.190;2023-06-14T05:35:11;2.17;;;1.80;;
53694;SDS011;39588;51.124;7.190;2023-06-14T05:37:37;1.87;;;1.73;;
53694;SDS011;39588;51.124;7.190;2023-06-14T05:40:03;2.00;;;1.80;;
53694;SDS011;39588;51.124;7.190;2023-06-14T05:42:30;5.17;;;1.70;;
53694;SDS011;39588;51.124;7.190;2023-06-14T05:44:56;1.67;;;1.57;;
53694;SDS011;39588;51.124;7.190;2023-06-14T05:47:22;2.73;;;1.83;;
53694;SDS011;39588;51.124;7.190;2023-06-14T05:49:49;2.23;;;1.80;;
53694;SDS011;39588;51.124;7.190;2023-06-14T05:52:15;6.23;;;1.93;;
53694;SDS011;39588;51.124;7.190;2023-06-14T05:54:41;7.23;;;1.83;;
53694;SDS011;39588;51.124;7.190;2023-06-14T05:57:07;1.73;;;1.63;;
53694;SDS011;39588;51.124;7.190;2023-06-14T05:59:32;1.87;;;1.73;;
53694;SDS011;39588;51.124;7.190;2023-06-14T06:01:58;2.17;;;1.70;;
53694;SDS011;39588;51.124;7.190;2023-06-14T06:04:24;2.03;;;1.80;;
53694;SDS011;39588;51.124;7.190;2023-06-14T06:06:50;2.00;;;1.73;;
53694;SDS011;39588;51.124;7.190;2023-06-14T06:09:16;1.77;;;1.60;;
53694;SDS011;39588;51.124;7.190;2023-06-14T06:11:42;1.63;;;1.50;;
53694;SDS011;39588;51.124;7.190;2023-06-14T06:14:07;1.53;;;1.43;;
53694;SDS011;39588;51.124;7.190;2023-06-14T06:16:33;1.87;;;1.60;;
53694;SDS011;39588;51.124;7.190;2023-06-14T06:19:00;1.53;;;1.43;;
53694;SDS011;39588;51.124;7.190;2023-06-14T06:21:26;1.80;;;1.30;;
53694;SDS011;39588;51.124;7.190;2023-06-14T06:23:52;1.60;;;1.50;;
53694;SDS011;39588;51.124;7.190;2023-06-14T06:26:21;1.37;;;1.30;;
53694;SDS011;39588;51.124;7.190;2023-06-14T06:28:47;1.60;;;1.50;;
53694;SDS011;39588;51.124;7.190;2023-06-14T06:31:13;3.60;;;1.43;;
53694;SDS011;39588;51.124;7.190;2023-06-14T06:33:38;4.37;;;1.60;;
53694;SDS011;39588;51.124;7.190;2023-06-14T06:36:05;1.37;;;1.37;;
53694;SDS011;39588;51.124;7.190;2023-06-14T06:38:30;1.60;;;1.50;;
53694;SDS011;39588;51.124;7.190;2023-06-14T06:40:56;3.97;;;1.50;;
53694;SDS011;39588;51.124;7.190;2023-06-14T06:43:22;1.40;;;1.33;;
53694;SDS011;39588;51.124;7.190;2023-06-14T06:45:48;1.70;;;1.60;;
53694;SDS011;39588;51.124;7.190;2023-06-14T06:48:14;1.60;;;1.50;;
53694;SDS011;39588;51.124;7.190;2023-06-14T06:50:41;1.40;;;1.30;;
53694;SDS011;39588;51.124;7.190;2023-06-14T06:53:07;1.30;;;1.20;;
53694;SDS011;39588;51.124;7.190;2023-06-14T06:55:33;4.50;;;1.23;;
53694;SDS011;39588;51.124;7.190;2023-06-14T06:57:59;1.30;;;1.30;;
53694;SDS011;39588;51.124;7.190;2023-06-14T07:00:25;2.57;;;1.50;;
53694;SDS011;39588;51.124;7.190;2023-06-14T07:02:51;1.33;;;1.20;;
53694;SDS011;39588;51.124;7.190;2023-06-14T07:05:20;1.67;;;1.30;;
53694;SDS011;39588;51.124;7.190;2023-06-14T07:07:45;0.93;;;0.93;;
53694;SDS011;39588;51.124;7.190;2023-06-14T07:10:11;1.50;;;1.40;;
53694;SDS011;39588;51.124;7.190;2023-06-14T07:12:37;3.93;;;1.10;;
53694;SDS011;39588;51.124;7.190;2023-06-14T07:15:05;1.20;;;1.10;;
53694;SDS011;39588;51.124;7.190;2023-06-14T07:17:32;1.53;;;1.43;;
53694;SDS011;39588;51.124;7.190;2023-06-14T07:19:59;4.50;;;1.73;;
53694;SDS011;39588;51.124;7.190;2023-06-14T07:22:25;1.13;;;1.13;;
53694;SDS011;39588;51.124;7.190;2023-06-14T07:24:51;3.10;;;1.57;;
53694;SDS011;39588;51.124;7.190;2023-06-14T07:27:17;1.67;;;1.27;;
53694;SDS011;39588;51.124;7.190;2023-06-14T07:29:44;1.67;;;1.30;;
53694;SDS011;39588;51.124;7.190;2023-06-14T07:32:10;1.10;;;1.10;;
53694;SDS011;39588;51.124;7.190;2023-06-14T07:34:36;0.93;;;0.93;;
53694;SDS011;39588;51.124;7.190;2023-06-14T07:37:02;3.63;;;1.33;;
53694;SDS011;39588;51.124;7.190;2023-06-14T07:39:28;1.20;;;1.10;;
53694;SDS011;39588;51.124;7.190;2023-06-14T07:41:54;1.00;;;1.00;;
53694;SDS011;39588;51.124;7.190;2023-06-14T07:44:20;1.23;;;1.13;;
53694;SDS011;39588;51.124;7.190;2023-06-14T07:46:46;3.83;;;1.27;;
53694;SDS011;39588;51.124;7.190;2023-06-14T07:49:14;0.90;;;0.90;;
53694;SDS011;39588;51.124;7.190;2023-06-14T07:51:40;3.67;;;1.50;;
53694;SDS011;39588;51.124;7.190;2023-06-14T07:54:06;1.53;;;1.33;;
53694;SDS011;39588;51.124;7.190;2023-06-14T07:56:34;2.77;;;1.30;;
53694;SDS011;39588;51.124;7.190;2023-06-14T07:59:00;3.23;;;1.20;;
53694;SDS011;39588;51.124;7.190;2023-06-14T08:01:26;3.07;;;1.40;;
53694;SDS011;39588;51.124;7.190;2023-06-14T08:03:53;1.27;;;1.17;;
53694;SDS011;39588;51.124;7.190;2023-06-14T08:06:19;0.77;;;0.77;;
53694;SDS011;39588;51.124;7.190;2023-06-14T08:08:45;3.50;;;1.30;;
53694;SDS011;39588;51.124;7.190;2023-06-14T08:11:11;2.83;;;0.80;;
53694;SDS011;39588;51.124;7.190;2023-06-14T08:13:37;1.03;;;1.00;;
53694;SDS011;39588;51.124;7.190;2023-06-14T08:16:03;0.87;;;0.87;;
53694;SDS011;39588;51.124;7.190;2023-06-14T08:18:30;2.13;;;0.83;;
53694;SDS011;39588;51.124;7.190;2023-06-14T08:20:55;0.97;;;0.97;;
53694;SDS011;39588;51.124;7.190;2023-06-14T08:23:22;0.90;;;0.90;;
53694;SDS011;39588;51.124;7.190;2023-06-14T08:25:48;1.10;;;1.10;;
53694;SDS011;39588;51.124;7.190;2023-06-14T08:28:14;1.30;;;1.20;;
53694;SDS011;39588;51.124;7.190;2023-06-14T08:30:41;1.13;;;1.10;;
53694;SDS011;39588;51.124;7.190;2023-06-14T08:33:07;0.90;;;0.90;;
53694;SDS011;39588;51.124;7.190;2023-06-14T08:35:33;1.50;;;1.00;;
53694;SDS011;39588;51.124;7.190;2023-06-14T08:38:02;0.93;;;0.93;;
53694;SDS011;39588;51.124;7.190;2023-06-14T08:40:29;1.67;;;1.17;;
53694;SDS011;39588;51.124;7.190;2023-06-14T08:42:55;1.13;;;1.03;;
53694;SDS011;39588;51.124;7.190;2023-06-14T08:45:22;1.53;;;1.00;;
53694;SDS011;39588;51.124;7.190;2023-06-14T08:47:51;0.87;;;0.80;;
53694;SDS011;39588;51.124;7.190;2023-06-14T08:50:23;1.30;;;1.20;;
53694;SDS011;39588;51.124;7.190;2023-06-14T08:52:53;1.27;;;1.17;;
53694;SDS011;39588;51.124;7.190;2023-06-14T08:55:22;1.10;;;1.00;;
53694;SDS011;39588;51.124;7.190;2023-06-14T08:57:51;5.20;;;1.00;;
53694;SDS011;39588;51.124;7.190;2023-06-14T09:00:18;0.83;;;0.83;;
53694;SDS011;39588;51.124;7.190;2023-06-14T09:02:45;2.17;;;1.13;;
53694;SDS011;39588;51.124;7.190;2023-06-14T09:05:11;1.27;;;1.17;;
53694;SDS011;39588;51.124;7.190;2023-06-14T09:07:43;1.00;;;1.00;;
53694;SDS011;39588;51.124;7.190;2023-06-14T09:10:10;2.53;;;1.20;;
53694;SDS011;39588;51.124;7.190;2023-06-14T09:12:37;0.73;;;0.73;;
53694;SDS011;39588;51.124;7.190;2023-06-14T09:15:04;1.33;;;1.23;;
53694;SDS011;39588;51.124;7.190;2023-06-14T09:17:33;6.73;;;1.07;;
53694;SDS011;39588;51.124;7.190;2023-06-14T09:20:00;1.20;;;0.90;;
53694;SDS011;39588;51.124;7.190;2023-06-14T09:22:30;1.13;;;1.03;;
53694;SDS011;39588;51.124;7.190;2023-06-14T09:24:56;1.00;;;1.00;;
53694;SDS011;39588;51.124;7.190;2023-06-14T09:27:22;4.03;;;1.27;;
53694;SDS011;39588;51.124;7.190;2023-06-14T09:29:47;2.50;;;1.03;;
53694;SDS011;39588;51.124;7.190;2023-06-14T09:32:13;3.73;;;1.20;;
53694;SDS011;39588;51.124;7.190;2023-06-14T09:34:40;1.90;;;1.30;;
53694;SDS011;39588;51.124;7.190;2023-06-14T09:37:05;1.67;;;1.50;;
53694;SDS011;39588;51.124;7.190;2023-06-14T09:39:31;1.30;;;1.30;;
53694;SDS011;39588;51.124;7.190;2023-06-14T09:41:57;1.50;;;1.40;;
53694;SDS011;39588;51.124;7.190;2023-06-14T09:44:23;1.40;;;1.30;;
53694;SDS011;39588;51.124;7.190;2023-06-14T09:46:53;1.20;;;1.20;;
53694;SDS011;39588;51.124;7.190;2023-06-14T09:49:21;1.03;;;1.03;;
53694;SDS011;39588;51.124;7.190;2023-06-14T09:51:47;1.40;;;1.30;;
53694;SDS011;39588;51.124;7.190;2023-06-14T09:54:16;5.37;;;1.67;;
53694;SDS011;39588;51.124;7.190;2023-06-14T09:56:46;3.90;;;1.40;;
53694;SDS011;39588;51.124;7.190;2023-06-14T09:59:14;4.50;;;1.50;;
53694;SDS011;39588;51.124;7.190;2023-06-14T10:01:44;2.10;;;1.30;;
53694;SDS011;39588;51.124;7.190;2023-06-14T10:04:10;1.60;;;1.50;;
53694;SDS011;39588;51.124;7.190;2023-06-14T10:06:37;1.73;;;1.57;;
53694;SDS011;39588;51.124;7.190;2023-06-14T10:09:07;1.43;;;1.30;;
53694;SDS011;39588;51.124;7.190;2023-06-14T10:11:33;1.10;;;1.00;;
53694;SDS011;39588;51.124;7.190;2023-06-14T10:14:00;1.73;;;1.60;;
53694;SDS011;39588;51.124;7.190;2023-06-14T10:16:52;1.07;;;1.07;;
53694;SDS011;39588;51.124;7.190;2023-06-14T10:24:48;1.17;;;1.07;;
53694;SDS011;39588;51.124;7.190;2023-06-14T10:27:15;1.27;;;1.00;;
53694;SDS011;39588;51.124;7.190;2023-06-14T10:32:23;1.03;;;1.03;;
53694;SDS011;39588;51.124;7.190;2023-06-14T10:34:56;0.90;;;0.90;;
53694;SDS011;39588;51.124;7.190;2023-06-14T10:37:26;3.80;;;1.20;;
53694;SDS011;39588;51.124;7.190;2023-06-14T10:39:52;0.90;;;0.90;;
53694;SDS011;39588;51.124;7.190;2023-06-14T10:42:19;1.30;;;1.20;;
53694;SDS011;39588;51.124;7.190;2023-06-14T10:44:51;1.20;;;1.17;;
53694;SDS011;39588;51.124;7.190;2023-06-14T10:47:31;0.80;;;0.80;;
53694;SDS011;39588;51.124;7.190;2023-06-14T10:52:33;2.93;;;1.57;;
53694;SDS011;39588;51.124;7.190;2023-06-14T10:57:26;6.43;;;1.17;;
53694;SDS011;39588;51.124;7.190;2023-06-14T10:59:52;0.93;;;0.93;;
53694;SDS011;39588;51.124;7.190;2023-06-14T11:04:54;4.10;;;1.10;;
53694;SDS011;39588;51.124;7.190;2023-06-14T11:12:47;0.97;;;0.97;;
53694;SDS011;39588;51.124;7.190;2023-06-14T11:15:13;0.90;;;0.90;;
53694;SDS011;39588;51.124;7.190;2023-06-14T11:17:39;1.20;;;1.20;;
53694;SDS011;39588;51.124;7.190;2023-06-14T11:20:09;1.80;;;1.10;;
53694;SDS011;39588;51.124;7.190;2023-06-14T11:22:41;2.33;;;1.13;;
53694;SDS011;39588;51.124;7.190;2023-06-14T11:25:13;1.37;;;1.27;;
53694;SDS011;39588;51.124;7.190;2023-06-14T11:27:41;1.00;;;1.00;;
53694;SDS011;39588;51.124;7.190;2023-06-14T11:30:08;2.03;;;1.23;;
53694;SDS011;39588;51.124;7.190;2023-06-14T11:32:34;1.43;;;1.10;;
53694;SDS011;39588;51.124;7.190;2023-06-14T11:35:01;1.10;;;1.00;;
53694;SDS011;39588;51.124;7.190;2023-06-14T11:37:27;1.00;;;1.00;;
53694;SDS011;39588;51.124;7.190;2023-06-14T11:39:57;0.90;;;0.90;;
53694;SDS011;39588;51.124;7.190;2023-06-14T11:42:24;0.97;;;0.97;;
53694;SDS011;39588;51.124;7.190;2023-06-14T11:44:56;1.00;;;1.00;;
53694;SDS011;39588;51.124;7.190;2023-06-14T11:47:22;0.93;;;0.93;;
53694;SDS011;39588;51.124;7.190;2023-06-14T11:49:48;5.60;;;0.93;;
53694;SDS011;39588;51.124;7.190;2023-06-14T11:52:14;0.80;;;0.80;;
53694;SDS011;39588;51.124;7.190;2023-06-14T11:54:40;1.00;;;1.00;;
53694;SDS011;39588;51.124;7.190;2023-06-14T11:57:06;1.03;;;1.03;;
53694;SDS011;39588;51.124;7.190;2023-06-14T11:59:42;1.43;;;0.80;;
53694;SDS011;39588;51.124;7.190;2023-06-14T12:02:09;0.60;;;0.60;;
53694;SDS011;39588;51.124;7.190;2023-06-14T12:04:40;0.77;;;0.77;;
53694;SDS011;39588;51.124;7.190;2023-06-14T12:07:13;2.20;;;1.03;;
53694;SDS011;39588;51.124;7.190;2023-06-14T12:12:22;3.03;;;0.90;;
53694;SDS011;39588;51.124;7.190;2023-06-14T12:14:50;6.50;;;1.07;;
53694;SDS011;39588;51.124;7.190;2023-06-14T12:17:16;2.00;;;0.93;;
53694;SDS011;39588;51.124;7.190;2023-06-14T12:19:43;0.83;;;0.83;;
53694;SDS011;39588;51.124;7.190;2023-06-14T12:22:10;0.80;;;0.80;;
53694;SDS011;39588;51.124;7.190;2023-06-14T12:24:36;2.53;;;0.80;;
53694;SDS011;39588;51.124;7.190;2023-06-14T12:27:03;2.63;;;0.90;;
53694;SDS011;39588;51.124;7.190;2023-06-14T12:29:29;0.83;;;0.83;;
53694;SDS011;39588;51.124;7.190;2023-06-14T12:31:56;1.00;;;0.80;;
53694;SDS011;39588;51.124;7.190;2023-06-14T12:34:25;1.40;;;0.93;;
53694;SDS011;39588;51.124;7.190;2023-06-14T12:36:55;1.10;;;0.83;;
53694;SDS011;39588;51.124;7.190;2023-06-14T12:39:21;0.80;;;0.80;;
53694;SDS011;39588;51.124;7.190;2023-06-14T12:41:47;1.33;;;1.00;;
53694;SDS011;39588;51.124;7.190;2023-06-14T12:44:14;0.97;;;0.97;;
53694;SDS011;39588;51.124;7.190;2023-06-14T12:46:40;1.20;;;1.10;;
53694;SDS011;39588;51.124;7.190;2023-06-14T12:49:08;1.10;;;1.10;;
53694;SDS011;39588;51.124;7.190;2023-06-14T12:51:34;0.90;;;0.90;;
53694;SDS011;39588;51.124;7.190;2023-06-14T12:54:00;1.20;;;1.10;;
53694;SDS011;39588;51.124;7.190;2023-06-14T12:56:26;0.77;;;0.77;;
53694;SDS011;39588;51.124;7.190;2023-06-14T12:58:52;1.40;;;1.13;;
53694;SDS011;39588;51.124;7.190;2023-06-14T13:01:18;1.30;;;1.20;;
53694;SDS011;39588;51.124;7.190;2023-06-14T13:03:45;1.10;;;1.03;;
53694;SDS011;39588;51.124;7.190;2023-06-14T13:06:11;1.03;;;1.03;;
53694;SDS011;39588;51.124;7.190;2023-06-14T13:08:38;0.90;;;0.90;;
53694;SDS011;39588;51.124;7.190;2023-06-14T13:11:04;1.77;;;1.53;;
53694;SDS011;39588;51.124;7.190;2023-06-14T13:13:30;1.33;;;1.23;;
53694;SDS011;39588;51.124;7.190;2023-06-14T13:15:56;1.00;;;1.00;;
53694;SDS011;39588;51.124;7.190;2023-06-14T13:18:22;3.20;;;1.00;;
53694;SDS011;39588;51.124;7.190;2023-06-14T13:20:47;1.70;;;1.20;;
53694;SDS011;39588;51.124;7.190;2023-06-14T13:23:16;1.77;;;1.30;;
53694;SDS011;39588;51.124;7.190;2023-06-14T13:25:41;1.33;;;1.23;;
53694;SDS011;39588;51.124;7.190;2023-06-14T13:28:08;1.00;;;1.00;;
53694;SDS011;39588;51.124;7.190;2023-06-14T13:30:34;1.00;;;1.00;;
53694;SDS011;39588;51.124;7.190;2023-06-14T13:33:00;1.27;;;1.23;;
53694;SDS011;39588;51.124;7.190;2023-06-14T13:35:26;1.30;;;1.30;;
53694;SDS011;39588;51.124;7.190;2023-06-14T13:37:52;1.13;;;1.13;;
53694;SDS011;39588;51.124;7.190;2023-06-14T13:40:17;3.70;;;1.00;;
53694;SDS011;39588;51.124;7.190;2023-06-14T13:42:44;1.10;;;1.10;;
53694;SDS011;39588;51.124;7.190;2023-06-14T13:45:11;5.30;;;1.13;;
53694;SDS011;39588;51.124;7.190;2023-06-14T13:47:37;1.47;;;1.07;;
53694;SDS011;39588;51.124;7.190;2023-06-14T13:50:03;1.33;;;1.33;;
53694;SDS011;39588;51.124;7.190;2023-06-14T13:52:30;1.30;;;1.20;;
53694;SDS011;39588;51.124;7.190;2023-06-14T13:54:56;1.53;;;1.43;;
53694;SDS011;39588;51.124;7.190;2023-06-14T13:57:22;1.27;;;1.17;;
53694;SDS011;39588;51.124;7.190;2023-06-14T13:59:48;4.83;;;1.20;;
53694;SDS011;39588;51.124;7.190;2023-06-14T14:02:14;3.03;;;1.57;;
53694;SDS011;39588;51.124;7.190;2023-06-14T14:04:40;1.30;;;1.30;;
53694;SDS011;39588;51.124;7.190;2023-06-14T14:07:07;1.13;;;1.13;;
53694;SDS011;39588;51.124;7.190;2023-06-14T14:09:33;1.90;;;1.40;;
53694;SDS011;39588;51.124;7.190;2023-06-14T14:12:02;3.23;;;1.60;;
53694;SDS011;39588;51.124;7.190;2023-06-14T14:14:29;1.57;;;1.47;;
53694;SDS011;39588;51.124;7.190;2023-06-14T14:16:57;1.87;;;1.60;;
53694;SDS011;39588;51.124;7.190;2023-06-14T14:19:22;1.17;;;1.17;;
53694;SDS011;39588;51.124;7.190;2023-06-14T14:21:49;1.50;;;1.40;;
53694;SDS011;39588;51.124;7.190;2023-06-14T14:24:15;1.20;;;1.10;;
53694;SDS011;39588;51.124;7.190;2023-06-14T14:26:42;1.20;;;1.20;;
53694;SDS011;39588;51.124;7.190;2023-06-14T14:29:08;1.30;;;1.20;;
53694;SDS011;39588;51.124;7.190;2023-06-14T14:31:36;3.70;;;1.40;;
53694;SDS011;39588;51.124;7.190;2023-06-14T14:34:02;1.30;;;1.20;;
53694;SDS011;39588;51.124;7.190;2023-06-14T14:36:27;2.03;;;1.20;;
53694;SDS011;39588;51.124;7.190;2023-06-14T14:38:53;1.20;;;1.10;;
53694;SDS011;39588;51.124;7.190;2023-06-14T14:41:19;2.17;;;1.30;;
53694;SDS011;39588;51.124;7.190;2023-06-14T14:43:45;3.53;;;1.30;;
53694;SDS011;39588;51.124;7.190;2023-06-14T14:46:11;1.40;;;1.30;;
53694;SDS011;39588;51.124;7.190;2023-06-14T14:48:37;6.83;;;1.40;;
53694;SDS011;39588;51.124;7.190;2023-06-14T14:51:03;1.63;;;1.50;;
53694;SDS011;39588;51.124;7.190;2023-06-14T14:53:30;0.97;;;0.97;;
53694;SDS011;39588;51.124;7.190;2023-06-14T14:55:56;1.33;;;1.33;;
53694;SDS011;39588;51.124;7.190;2023-06-14T14:58:22;1.20;;;1.20;;
53694;SDS011;39588;51.124;7.190;2023-06-14T15:00:47;0.90;;;0.90;;
53694;SDS011;39588;51.124;7.190;2023-06-14T15:03:13;2.10;;;1.13;;
53694;SDS011;39588;51.124;7.190;2023-06-14T15:05:39;6.63;;;1.43;;
53694;SDS011;39588;51.124;7.190;2023-06-14T15:08:05;2.80;;;1.43;;
53694;SDS011;39588;51.124;7.190;2023-06-14T15:10:40;1.37;;;1.27;;
53694;SDS011;39588;51.124;7.190;2023-06-14T15:13:09;1.10;;;1.10;;
53694;SDS011;39588;51.124;7.190;2023-06-14T15:15:35;1.00;;;0.97;;